sensor_id;sensor_type;location;lat;lon;timestamp;temperature;humidity
23471;DHT22;11908;50.806;4.424;2024-02-15T00:01:50;13.10;99.90
23471;DHT22;11908;50.806;4.424;2024-02-15T00:04:16;13.20;99.90
23471;DHT22;11908;50.806;4.424;2024-02-15T00:06:43;13.10;99.90
23471;DHT22;11908;50.806;4.424;2024-02-15T00:09:09;13.10;99.90
23471;DHT22;11908;50.806;4.424;2024-02-15T00:11:34;13.10;99.90
23471;DHT22;11908;50.806;4.424;2024-02-15T00:14:00;13.20;99.90
23471;DHT22;11908;50.806;4.424;2024-02-15T00:16:26;13.20;99.90
23471;DHT22;11908;50.806;4.424;2024-02-15T00:18:53;13.30;99.90
23471;DHT22;11908;50.806;4.424;2024-02-15T00:21:21;13.40;99.90
23471;DHT22;11908;50.806;4.424;2024-02-15T00:23:48;13.40;99.90
23471;DHT22;11908;50.806;4.424;2024-02-15T00:26:14;13.40;99.90
23471;DHT22;11908;50.806;4.424;2024-02-15T00:28:43;13.40;99.90
23471;DHT22;11908;50.806;4.424;2024-02-15T00:31:09;13.40;99.90
23471;DHT22;11908;50.806;4.424;2024-02-15T00:33:34;13.40;99.90
23471;DHT22;11908;50.806;4.424;2024-02-15T00:36:03;13.50;99.90
23471;DHT22;11908;50.806;4.424;2024-02-15T00:38:32;13.50;99.90
23471;DHT22;11908;50.806;4.424;2024-02-15T00:40:58;13.50;99.90
23471;DHT22;11908;50.806;4.424;2024-02-15T00:43:27;13.40;99.90
23471;DHT22;11908;50.806;4.424;2024-02-15T00:45:53;13.40;99.90
23471;DHT22;11908;50.806;4.424;2024-02-15T00:48:19;13.50;99.90
23471;DHT22;11908;50.806;4.424;2024-02-15T00:50:45;13.40;99.90
23471;DHT22;11908;50.806;4.424;2024-02-15T00:53:11;13.40;99.90
23471;DHT22;11908;50.806;4.424;2024-02-15T00:55:36;13.40;99.90
23471;DHT22;11908;50.806;4.424;2024-02-15T00:58:02;13.40;99.90
23471;DHT22;11908;50.806;4.424;2024-02-15T01:00:28;13.40;99.90
23471;DHT22;11908;50.806;4.424;2024-02-15T01:02:55;13.40;99.90
23471;DHT22;11908;50.806;4.424;2024-02-15T01:05:21;13.50;99.90
23471;DHT22;11908;50.806;4.424;2024-02-15T01:07:47;13.40;99.90
23471;DHT22;11908;50.806;4.424;2024-02-15T01:10:16;13.40;99.90
23471;DHT22;11908;50.806;4.424;2024-02-15T01:12:41;13.40;99.90
23471;DHT22;11908;50.806;4.424;2024-02-15T01:15:07;13.40;99.90
23471;DHT22;11908;50.806;4.424;2024-02-15T01:17:33;13.40;99.90
23471;DHT22;11908;50.806;4.424;2024-02-15T01:20:00;13.40;99.90
23471;DHT22;11908;50.806;4.424;2024-02-15T01:22:25;13.40;99.90
23471;DHT22;11908;50.806;4.424;2024-02-15T01:24:52;13.50;99.90
23471;DHT22;11908;50.806;4.424;2024-02-15T01:27:18;13.50;99.90
23471;DHT22;11908;50.806;4.424;2024-02-15T01:29:44;13.50;99.90
23471;DHT22;11908;50.806;4.424;2024-02-15T01:32:10;13.50;99.90
23471;DHT22;11908;50.806;4.424;2024-02-15T01:34:36;13.50;99.90
23471;DHT22;11908;50.806;4.424;2024-02-15T01:37:02;13.60;99.90
23471;DHT22;11908;50.806;4.424;2024-02-15T01:39:28;13.50;99.90
23471;DHT22;11908;50.806;4.424;2024-02-15T01:41:53;13.60;99.90
23471;DHT22;11908;50.806;4.424;2024-02-15T01:44:22;13.60;99.90
23471;DHT22;11908;50.806;4.424;2024-02-15T01:46:50;13.50;99.90
23471;DHT22;11908;50.806;4.424;2024-02-15T01:49:17;13.50;99.90
23471;DHT22;11908;50.806;4.424;2024-02-15T01:51:44;13.60;99.90
23471;DHT22;11908;50.806;4.424;2024-02-15T01:54:12;13.50;99.90
23471;DHT22;11908;50.806;4.424;2024-02-15T01:56:38;13.50;99.90
23471;DHT22;11908;50.806;4.424;2024-02-15T01:59:05;13.40;99.90
23471;DHT22;11908;50.806;4.424;2024-02-15T02:01:32;13.30;99.90
23471;DHT22;11908;50.806;4.424;2024-02-15T02:04:03;13.40;99.90
23471;DHT22;11908;50.806;4.424;2024-02-15T02:06:30;13.40;99.90
23471;DHT22;11908;50.806;4.424;2024-02-15T02:08:55;13.40;99.90
23471;DHT22;11908;50.806;4.424;2024-02-15T02:11:22;13.40;99.90
23471;DHT22;11908;50.806;4.424;2024-02-15T02:13:48;13.30;99.90
23471;DHT22;11908;50.806;4.424;2024-02-15T02:16:30;13.30;99.90
23471;DHT22;11908;50.806;4.424;2024-02-15T02:19:01;13.30;99.90
23471;DHT22;11908;50.806;4.424;2024-02-15T02:21:28;13.20;99.90
23471;DHT22;11908;50.806;4.424;2024-02-15T02:23:57;13.20;99.90
23471;DHT22;11908;50.806;4.424;2024-02-15T02:26:24;13.20;99.90
23471;DHT22;11908;50.806;4.424;2024-02-15T02:28:51;13.20;99.90
23471;DHT22;11908;50.806;4.424;2024-02-15T02:31:20;13.30;99.90
23471;DHT22;11908;50.806;4.424;2024-02-15T02:33:50;13.20;99.90
23471;DHT22;11908;50.806;4.424;2024-02-15T02:36:19;13.20;99.90
23471;DHT22;11908;50.806;4.424;2024-02-15T02:38:45;13.20;99.90
23471;DHT22;11908;50.806;4.424;2024-02-15T02:41:12;13.20;99.90
23471;DHT22;11908;50.806;4.424;2024-02-15T02:43:40;13.10;99.90
23471;DHT22;11908;50.806;4.424;2024-02-15T02:46:06;13.10;99.90
23471;DHT22;11908;50.806;4.424;2024-02-15T02:48:32;13.10;99.90
23471;DHT22;11908;50.806;4.424;2024-02-15T02:50:58;13.20;99.90
23471;DHT22;11908;50.806;4.424;2024-02-15T02:53:24;13.20;99.90
23471;DHT22;11908;50.806;4.424;2024-02-15T02:55:51;13.10;99.90
23471;DHT22;11908;50.806;4.424;2024-02-15T02:58:16;13.20;99.90
23471;DHT22;11908;50.806;4.424;2024-02-15T03:00:42;13.20;99.90
23471;DHT22;11908;50.806;4.424;2024-02-15T03:03:08;13.20;99.90
23471;DHT22;11908;50.806;4.424;2024-02-15T03:05:35;13.20;99.90
23471;DHT22;11908;50.806;4.424;2024-02-15T03:08:00;13.30;99.90
23471;DHT22;11908;50.806;4.424;2024-02-15T03:10:26;13.30;99.90
23471;DHT22;11908;50.806;4.424;2024-02-15T03:12:52;13.20;99.90
23471;DHT22;11908;50.806;4.424;2024-02-15T03:15:18;13.20;99.90
23471;DHT22;11908;50.806;4.424;2024-02-15T03:17:47;13.10;99.90
23471;DHT22;11908;50.806;4.424;2024-02-15T03:20:12;13.10;99.90
23471;DHT22;11908;50.806;4.424;2024-02-15T03:22:58;13.20;99.90
23471;DHT22;11908;50.806;4.424;2024-02-15T03:25:25;13.20;99.90
23471;DHT22;11908;50.806;4.424;2024-02-15T03:27:55;13.00;99.90
23471;DHT22;11908;50.806;4.424;2024-02-15T03:30:22;13.00;99.90
23471;DHT22;11908;50.806;4.424;2024-02-15T03:32:51;12.90;99.90
23471;DHT22;11908;50.806;4.424;2024-02-15T03:35:18;12.90;99.90
23471;DHT22;11908;50.806;4.424;2024-02-15T03:37:44;13.00;99.90
23471;DHT22;11908;50.806;4.424;2024-02-15T03:40:11;13.00;99.90
23471;DHT22;11908;50.806;4.424;2024-02-15T03:42:37;13.00;99.90
23471;DHT22;11908;50.806;4.424;2024-02-15T03:45:04;13.00;99.90
23471;DHT22;11908;50.806;4.424;2024-02-15T03:47:32;13.10;99.90
23471;DHT22;11908;50.806;4.424;2024-02-15T03:49:59;13.20;99.90
23471;DHT22;11908;50.806;4.424;2024-02-15T03:52:25;13.10;99.90
23471;DHT22;11908;50.806;4.424;2024-02-15T03:54:50;13.10;99.90
23471;DHT22;11908;50.806;4.424;2024-02-15T03:57:18;13.20;99.90
23471;DHT22;11908;50.806;4.424;2024-02-15T03:59:46;13.20;99.90
23471;DHT22;11908;50.806;4.424;2024-02-15T04:02:16;13.20;99.90
23471;DHT22;11908;50.806;4.424;2024-02-15T04:04:41;13.10;99.90
23471;DHT22;11908;50.806;4.424;2024-02-15T04:07:08;13.10;99.90
23471;DHT22;11908;50.806;4.424;2024-02-15T04:09:36;13.00;99.90
23471;DHT22;11908;50.806;4.424;2024-02-15T04:12:02;13.00;99.90
23471;DHT22;11908;50.806;4.424;2024-02-15T04:14:27;13.00;99.90
23471;DHT22;11908;50.806;4.424;2024-02-15T04:16:53;13.00;99.90
23471;DHT22;11908;50.806;4.424;2024-02-15T04:19:19;13.00;99.90
23471;DHT22;11908;50.806;4.424;2024-02-15T04:21:45;12.90;99.90
23471;DHT22;11908;50.806;4.424;2024-02-15T04:24:12;12.80;99.90
23471;DHT22;11908;50.806;4.424;2024-02-15T04:26:38;12.80;99.90
23471;DHT22;11908;50.806;4.424;2024-02-15T04:29:04;12.80;99.90
23471;DHT22;11908;50.806;4.424;2024-02-15T04:31:29;12.90;99.90
23471;DHT22;11908;50.806;4.424;2024-02-15T04:33:57;12.90;99.90
23471;DHT22;11908;50.806;4.424;2024-02-15T04:36:22;13.00;99.90
23471;DHT22;11908;50.806;4.424;2024-02-15T04:38:52;13.00;99.90
23471;DHT22;11908;50.806;4.424;2024-02-15T04:41:18;13.00;99.90
23471;DHT22;11908;50.806;4.424;2024-02-15T04:43:49;13.00;99.90
23471;DHT22;11908;50.806;4.424;2024-02-15T04:46:14;13.10;99.90
23471;DHT22;11908;50.806;4.424;2024-02-15T04:48:41;13.10;99.90
23471;DHT22;11908;50.806;4.424;2024-02-15T04:51:10;13.10;99.90
23471;DHT22;11908;50.806;4.424;2024-02-15T04:53:39;13.10;99.90
23471;DHT22;11908;50.806;4.424;2024-02-15T04:56:05;13.20;99.90
23471;DHT22;11908;50.806;4.424;2024-02-15T04:58:42;13.20;99.90
23471;DHT22;11908;50.806;4.424;2024-02-15T05:01:14;13.10;99.90
23471;DHT22;11908;50.806;4.424;2024-02-15T05:03:44;13.10;99.90
23471;DHT22;11908;50.806;4.424;2024-02-15T05:06:10;13.00;99.90
23471;DHT22;11908;50.806;4.424;2024-02-15T05:08:38;13.00;99.90
23471;DHT22;11908;50.806;4.424;2024-02-15T05:11:11;13.10;99.90
23471;DHT22;11908;50.806;4.424;2024-02-15T05:13:45;13.00;99.90
23471;DHT22;11908;50.806;4.424;2024-02-15T05:16:11;13.00;99.90
23471;DHT22;11908;50.806;4.424;2024-02-15T05:18:37;13.10;99.90
23471;DHT22;11908;50.806;4.424;2024-02-15T05:21:05;13.10;99.90
23471;DHT22;11908;50.806;4.424;2024-02-15T05:23:35;13.10;99.90
23471;DHT22;11908;50.806;4.424;2024-02-15T05:26:02;13.10;99.90
23471;DHT22;11908;50.806;4.424;2024-02-15T05:28:29;13.20;99.90
23471;DHT22;11908;50.806;4.424;2024-02-15T05:31:14;13.10;99.90
23471;DHT22;11908;50.806;4.424;2024-02-15T05:33:43;13.20;99.90
23471;DHT22;11908;50.806;4.424;2024-02-15T05:36:11;13.20;99.90
23471;DHT22;11908;50.806;4.424;2024-02-15T05:38:36;13.20;99.90
23471;DHT22;11908;50.806;4.424;2024-02-15T05:41:02;13.20;99.90
23471;DHT22;11908;50.806;4.424;2024-02-15T05:43:28;13.20;99.90
23471;DHT22;11908;50.806;4.424;2024-02-15T05:45:54;13.20;99.90
23471;DHT22;11908;50.806;4.424;2024-02-15T05:48:24;13.20;99.90
23471;DHT22;11908;50.806;4.424;2024-02-15T05:50:49;13.20;99.90
23471;DHT22;11908;50.806;4.424;2024-02-15T05:53:15;13.20;99.90
23471;DHT22;11908;50.806;4.424;2024-02-15T05:55:41;13.20;99.90
23471;DHT22;11908;50.806;4.424;2024-02-15T05:58:09;13.30;99.90
23471;DHT22;11908;50.806;4.424;2024-02-15T06:00:37;13.20;99.90
23471;DHT22;11908;50.806;4.424;2024-02-15T06:03:04;13.20;99.90
23471;DHT22;11908;50.806;4.424;2024-02-15T06:05:31;13.20;99.90
23471;DHT22;11908;50.806;4.424;2024-02-15T06:08:00;13.20;99.90
23471;DHT22;11908;50.806;4.424;2024-02-15T06:10:26;13.20;99.90
23471;DHT22;11908;50.806;4.424;2024-02-15T06:12:51;13.10;99.90
23471;DHT22;11908;50.806;4.424;2024-02-15T06:15:17;13.10;99.90
23471;DHT22;11908;50.806;4.424;2024-02-15T06:17:43;13.10;99.90
23471;DHT22;11908;50.806;4.424;2024-02-15T06:20:15;13.10;99.90
23471;DHT22;11908;50.806;4.424;2024-02-15T06:22:43;13.20;99.90
23471;DHT22;11908;50.806;4.424;2024-02-15T06:25:09;13.10;99.90
23471;DHT22;11908;50.806;4.424;2024-02-15T06:27:37;13.10;99.90
23471;DHT22;11908;50.806;4.424;2024-02-15T06:30:07;13.10;99.90
23471;DHT22;11908;50.806;4.424;2024-02-15T06:32:51;13.10;99.90
23471;DHT22;11908;50.806;4.424;2024-02-15T06:35:35;13.10;99.90
23471;DHT22;11908;50.806;4.424;2024-02-15T06:38:19;13.10;99.90
23471;DHT22;11908;50.806;4.424;2024-02-15T06:41:03;13.00;99.90
23471;DHT22;11908;50.806;4.424;2024-02-15T06:43:30;12.90;99.90
23471;DHT22;11908;50.806;4.424;2024-02-15T06:45:55;12.90;99.90
23471;DHT22;11908;50.806;4.424;2024-02-15T06:48:21;12.90;99.90
23471;DHT22;11908;50.806;4.424;2024-02-15T06:50:50;13.00;99.90
23471;DHT22;11908;50.806;4.424;2024-02-15T06:53:15;13.00;99.90
23471;DHT22;11908;50.806;4.424;2024-02-15T06:55:41;13.00;99.90
23471;DHT22;11908;50.806;4.424;2024-02-15T06:58:07;13.00;99.90
23471;DHT22;11908;50.806;4.424;2024-02-15T07:00:33;13.00;99.90
23471;DHT22;11908;50.806;4.424;2024-02-15T07:02:59;13.00;99.90
23471;DHT22;11908;50.806;4.424;2024-02-15T07:05:26;12.90;99.90
23471;DHT22;11908;50.806;4.424;2024-02-15T07:07:53;12.90;99.90
23471;DHT22;11908;50.806;4.424;2024-02-15T07:10:20;13.00;99.90
23471;DHT22;11908;50.806;4.424;2024-02-15T07:12:46;13.00;99.90
23471;DHT22;11908;50.806;4.424;2024-02-15T07:15:12;13.00;99.90
23471;DHT22;11908;50.806;4.424;2024-02-15T07:17:38;13.00;99.90
23471;DHT22;11908;50.806;4.424;2024-02-15T07:20:05;13.00;99.90
23471;DHT22;11908;50.806;4.424;2024-02-15T07:22:32;13.10;99.90
23471;DHT22;11908;50.806;4.424;2024-02-15T07:24:57;13.10;99.90
23471;DHT22;11908;50.806;4.424;2024-02-15T07:27:23;13.10;99.90
23471;DHT22;11908;50.806;4.424;2024-02-15T07:29:54;13.20;99.90
23471;DHT22;11908;50.806;4.424;2024-02-15T07:32:21;13.20;99.90
23471;DHT22;11908;50.806;4.424;2024-02-15T07:34:47;13.20;99.90
23471;DHT22;11908;50.806;4.424;2024-02-15T07:37:13;13.20;99.90
23471;DHT22;11908;50.806;4.424;2024-02-15T07:39:41;13.30;99.90
23471;DHT22;11908;50.806;4.424;2024-02-15T07:42:07;13.30;99.90
23471;DHT22;11908;50.806;4.424;2024-02-15T07:44:34;13.40;99.90
23471;DHT22;11908;50.806;4.424;2024-02-15T07:47:02;13.40;99.90
23471;DHT22;11908;50.806;4.424;2024-02-15T07:49:28;13.40;99.90
23471;DHT22;11908;50.806;4.424;2024-02-15T07:51:54;13.50;99.90
23471;DHT22;11908;50.806;4.424;2024-02-15T07:54:20;13.40;99.90
23471;DHT22;11908;50.806;4.424;2024-02-15T07:56:49;13.40;99.90
23471;DHT22;11908;50.806;4.424;2024-02-15T07:59:15;13.40;99.90
23471;DHT22;11908;50.806;4.424;2024-02-15T08:01:42;13.50;99.90
23471;DHT22;11908;50.806;4.424;2024-02-15T08:04:09;13.60;99.90
23471;DHT22;11908;50.806;4.424;2024-02-15T08:06:34;13.70;99.90
23471;DHT22;11908;50.806;4.424;2024-02-15T08:09:02;13.80;99.90
23471;DHT22;11908;50.806;4.424;2024-02-15T08:11:31;13.80;99.90
23471;DHT22;11908;50.806;4.424;2024-02-15T08:13:56;13.90;99.90
23471;DHT22;11908;50.806;4.424;2024-02-15T08:16:25;14.00;99.90
23471;DHT22;11908;50.806;4.424;2024-02-15T08:18:54;14.00;99.90
23471;DHT22;11908;50.806;4.424;2024-02-15T08:21:27;14.00;99.90
23471;DHT22;11908;50.806;4.424;2024-02-15T08:23:55;14.20;99.90
23471;DHT22;11908;50.806;4.424;2024-02-15T08:26:21;14.20;99.90
23471;DHT22;11908;50.806;4.424;2024-02-15T08:28:47;14.30;99.90
23471;DHT22;11908;50.806;4.424;2024-02-15T08:31:12;14.40;99.90
23471;DHT22;11908;50.806;4.424;2024-02-15T08:33:41;14.30;99.90
23471;DHT22;11908;50.806;4.424;2024-02-15T08:36:08;14.40;99.90
23471;DHT22;11908;50.806;4.424;2024-02-15T08:38:36;14.30;99.90
23471;DHT22;11908;50.806;4.424;2024-02-15T08:41:03;14.40;99.90
23471;DHT22;11908;50.806;4.424;2024-02-15T08:43:30;14.50;99.90
23471;DHT22;11908;50.806;4.424;2024-02-15T08:45:59;14.60;99.90
23471;DHT22;11908;50.806;4.424;2024-02-15T08:48:25;14.70;99.90
23471;DHT22;11908;50.806;4.424;2024-02-15T08:50:51;14.70;99.90
23471;DHT22;11908;50.806;4.424;2024-02-15T08:53:17;14.70;99.90
23471;DHT22;11908;50.806;4.424;2024-02-15T08:55:45;14.90;99.90
23471;DHT22;11908;50.806;4.424;2024-02-15T08:58:11;14.90;99.90
23471;DHT22;11908;50.806;4.424;2024-02-15T09:00:37;15.00;99.90
23471;DHT22;11908;50.806;4.424;2024-02-15T09:03:10;15.00;99.90
23471;DHT22;11908;50.806;4.424;2024-02-15T09:05:36;15.10;99.90
23471;DHT22;11908;50.806;4.424;2024-02-15T09:08:01;15.20;99.90
23471;DHT22;11908;50.806;4.424;2024-02-15T09:10:28;15.30;99.90
23471;DHT22;11908;50.806;4.424;2024-02-15T09:12:56;15.30;99.90
23471;DHT22;11908;50.806;4.424;2024-02-15T09:15:22;15.30;99.90
23471;DHT22;11908;50.806;4.424;2024-02-15T09:17:48;15.40;99.90
23471;DHT22;11908;50.806;4.424;2024-02-15T09:20:14;15.50;99.90
23471;DHT22;11908;50.806;4.424;2024-02-15T09:22:48;15.60;99.90
23471;DHT22;11908;50.806;4.424;2024-02-15T09:25:14;15.80;99.90
23471;DHT22;11908;50.806;4.424;2024-02-15T09:27:40;15.80;99.90
23471;DHT22;11908;50.806;4.424;2024-02-15T09:30:06;15.80;99.90
23471;DHT22;11908;50.806;4.424;2024-02-15T09:32:35;15.80;99.90
23471;DHT22;11908;50.806;4.424;2024-02-15T09:35:01;15.80;99.90
23471;DHT22;11908;50.806;4.424;2024-02-15T09:37:27;15.70;99.90
23471;DHT22;11908;50.806;4.424;2024-02-15T09:39:54;15.90;99.90
23471;DHT22;11908;50.806;4.424;2024-02-15T09:42:20;16.00;99.90
23471;DHT22;11908;50.806;4.424;2024-02-15T09:44:46;16.20;99.90
23471;DHT22;11908;50.806;4.424;2024-02-15T09:47:12;16.60;99.90
23471;DHT22;11908;50.806;4.424;2024-02-15T09:49:40;16.80;99.90
23471;DHT22;11908;50.806;4.424;2024-02-15T09:52:08;16.90;99.90
23471;DHT22;11908;50.806;4.424;2024-02-15T09:54:43;17.30;99.90
23471;DHT22;11908;50.806;4.424;2024-02-15T09:57:10;17.40;99.90
23471;DHT22;11908;50.806;4.424;2024-02-15T09:59:37;17.80;99.90
23471;DHT22;11908;50.806;4.424;2024-02-15T10:02:03;17.90;99.90
23471;DHT22;11908;50.806;4.424;2024-02-15T10:04:29;18.00;99.90
23471;DHT22;11908;50.806;4.424;2024-02-15T10:06:55;17.90;99.90
23471;DHT22;11908;50.806;4.424;2024-02-15T10:09:28;17.70;99.90
23471;DHT22;11908;50.806;4.424;2024-02-15T10:11:57;17.50;99.90
23471;DHT22;11908;50.806;4.424;2024-02-15T10:14:28;17.60;99.90
23471;DHT22;11908;50.806;4.424;2024-02-15T10:16:54;17.50;99.90
23471;DHT22;11908;50.806;4.424;2024-02-15T10:19:21;17.60;99.90
23471;DHT22;11908;50.806;4.424;2024-02-15T10:21:53;17.70;99.90
23471;DHT22;11908;50.806;4.424;2024-02-15T10:24:22;17.70;99.90
23471;DHT22;11908;50.806;4.424;2024-02-15T10:26:49;17.90;99.90
23471;DHT22;11908;50.806;4.424;2024-02-15T10:29:16;18.40;99.90
23471;DHT22;11908;50.806;4.424;2024-02-15T10:31:56;18.30;99.90
23471;DHT22;11908;50.806;4.424;2024-02-15T10:34:24;18.40;99.90
23471;DHT22;11908;50.806;4.424;2024-02-15T10:37:09;18.40;99.90
23471;DHT22;11908;50.806;4.424;2024-02-15T10:39:37;18.60;99.90
23471;DHT22;11908;50.806;4.424;2024-02-15T10:42:03;18.80;99.90
23471;DHT22;11908;50.806;4.424;2024-02-15T10:44:32;19.20;99.90
23471;DHT22;11908;50.806;4.424;2024-02-15T10:46:59;19.80;99.90
23471;DHT22;11908;50.806;4.424;2024-02-15T10:49:26;20.50;99.90
23471;DHT22;11908;50.806;4.424;2024-02-15T10:52:00;20.60;99.90
23471;DHT22;11908;50.806;4.424;2024-02-15T10:57:05;20.80;99.90
23471;DHT22;11908;50.806;4.424;2024-02-15T10:59:38;21.10;99.90
23471;DHT22;11908;50.806;4.424;2024-02-15T11:02:33;20.50;99.90
23471;DHT22;11908;50.806;4.424;2024-02-15T11:05:06;20.20;99.90
23471;DHT22;11908;50.806;4.424;2024-02-15T11:07:36;20.00;99.90
23471;DHT22;11908;50.806;4.424;2024-02-15T11:10:03;19.50;99.90
23471;DHT22;11908;50.806;4.424;2024-02-15T11:12:31;19.20;99.90
23471;DHT22;11908;50.806;4.424;2024-02-15T11:14:57;19.10;99.90
23471;DHT22;11908;50.806;4.424;2024-02-15T11:17:55;19.10;99.90
23471;DHT22;11908;50.806;4.424;2024-02-15T11:23:01;18.60;99.90
23471;DHT22;11908;50.806;4.424;2024-02-15T11:30:48;18.30;99.90
23471;DHT22;11908;50.806;4.424;2024-02-15T11:36:12;18.00;99.90
23471;DHT22;11908;50.806;4.424;2024-02-15T11:38:39;18.10;99.90
23471;DHT22;11908;50.806;4.424;2024-02-15T11:41:10;18.20;99.90
23471;DHT22;11908;50.806;4.424;2024-02-15T11:46:20;18.40;99.90
23471;DHT22;11908;50.806;4.424;2024-02-15T11:48:46;18.20;99.90
23471;DHT22;11908;50.806;4.424;2024-02-15T11:51:35;18.30;99.90
23471;DHT22;11908;50.806;4.424;2024-02-15T11:54:10;18.30;99.90
23471;DHT22;11908;50.806;4.424;2024-02-15T11:56:57;18.20;99.90
23471;DHT22;11908;50.806;4.424;2024-02-15T11:59:43;18.10;99.90
23471;DHT22;11908;50.806;4.424;2024-02-15T12:02:40;18.20;99.90
23471;DHT22;11908;50.806;4.424;2024-02-15T12:05:24;18.60;99.90
23471;DHT22;11908;50.806;4.424;2024-02-15T12:08:10;18.70;99.90
23471;DHT22;11908;50.806;4.424;2024-02-15T12:11:01;18.60;99.90
23471;DHT22;11908;50.806;4.424;2024-02-15T12:13:52;18.60;99.90
23471;DHT22;11908;50.806;4.424;2024-02-15T12:16:36;18.80;99.90
23471;DHT22;11908;50.806;4.424;2024-02-15T12:19:20;18.80;99.90
23471;DHT22;11908;50.806;4.424;2024-02-15T12:21:47;18.90;99.90
23471;DHT22;11908;50.806;4.424;2024-02-15T12:24:14;18.70;99.90
23471;DHT22;11908;50.806;4.424;2024-02-15T12:26:41;18.50;99.90
23471;DHT22;11908;50.806;4.424;2024-02-15T12:29:07;18.60;99.90
23471;DHT22;11908;50.806;4.424;2024-02-15T12:31:36;18.50;99.90
23471;DHT22;11908;50.806;4.424;2024-02-15T12:34:04;18.60;99.90
23471;DHT22;11908;50.806;4.424;2024-02-15T12:36:33;18.60;99.90
23471;DHT22;11908;50.806;4.424;2024-02-15T12:39:03;18.50;99.90
23471;DHT22;11908;50.806;4.424;2024-02-15T12:41:39;18.50;99.90
23471;DHT22;11908;50.806;4.424;2024-02-15T12:44:07;18.50;99.90
23471;DHT22;11908;50.806;4.424;2024-02-15T12:46:34;18.50;99.90
23471;DHT22;11908;50.806;4.424;2024-02-15T12:51:50;18.60;99.90
23471;DHT22;11908;50.806;4.424;2024-02-15T12:54:23;18.70;99.90
23471;DHT22;11908;50.806;4.424;2024-02-15T12:56:49;18.80;99.90
23471;DHT22;11908;50.806;4.424;2024-02-15T12:59:18;19.10;99.90
23471;DHT22;11908;50.806;4.424;2024-02-15T13:01:45;19.00;99.90
23471;DHT22;11908;50.806;4.424;2024-02-15T13:04:25;19.20;99.90
23471;DHT22;11908;50.806;4.424;2024-02-15T13:06:51;19.00;99.90
23471;DHT22;11908;50.806;4.424;2024-02-15T13:09:17;19.00;99.90
23471;DHT22;11908;50.806;4.424;2024-02-15T13:11:42;19.20;99.90
23471;DHT22;11908;50.806;4.424;2024-02-15T13:14:11;19.00;99.90
23471;DHT22;11908;50.806;4.424;2024-02-15T13:16:38;18.90;99.90
23471;DHT22;11908;50.806;4.424;2024-02-15T13:19:03;19.00;99.90
23471;DHT22;11908;50.806;4.424;2024-02-15T13:21:32;19.00;99.90
23471;DHT22;11908;50.806;4.424;2024-02-15T13:23:59;19.30;99.90
23471;DHT22;11908;50.806;4.424;2024-02-15T13:26:25;19.50;99.90
23471;DHT22;11908;50.806;4.424;2024-02-15T13:28:52;19.50;99.90
23471;DHT22;11908;50.806;4.424;2024-02-15T13:31:18;19.40;99.90
23471;DHT22;11908;50.806;4.424;2024-02-15T13:33:46;19.50;99.90
23471;DHT22;11908;50.806;4.424;2024-02-15T13:36:13;19.60;99.90
23471;DHT22;11908;50.806;4.424;2024-02-15T13:38:41;19.30;99.90
23471;DHT22;11908;50.806;4.424;2024-02-15T13:41:08;19.30;99.90
23471;DHT22;11908;50.806;4.424;2024-02-15T13:43:34;19.20;99.90
23471;DHT22;11908;50.806;4.424;2024-02-15T13:46:00;19.00;99.90
23471;DHT22;11908;50.806;4.424;2024-02-15T13:48:30;18.90;99.90
23471;DHT22;11908;50.806;4.424;2024-02-15T13:50:57;18.90;99.90
23471;DHT22;11908;50.806;4.424;2024-02-15T13:53:23;18.80;99.90
23471;DHT22;11908;50.806;4.424;2024-02-15T13:55:50;18.40;99.90
23471;DHT22;11908;50.806;4.424;2024-02-15T13:58:17;18.40;99.90
23471;DHT22;11908;50.806;4.424;2024-02-15T14:00:43;18.30;99.90
23471;DHT22;11908;50.806;4.424;2024-02-15T14:03:11;18.30;99.90
23471;DHT22;11908;50.806;4.424;2024-02-15T14:05:37;18.10;99.90
23471;DHT22;11908;50.806;4.424;2024-02-15T14:08:05;18.00;99.90
23471;DHT22;11908;50.806;4.424;2024-02-15T14:10:33;18.10;99.90
23471;DHT22;11908;50.806;4.424;2024-02-15T14:13:02;18.10;99.90
23471;DHT22;11908;50.806;4.424;2024-02-15T14:15:29;18.10;99.90
23471;DHT22;11908;50.806;4.424;2024-02-15T14:17:55;18.30;99.90
23471;DHT22;11908;50.806;4.424;2024-02-15T14:20:22;18.20;99.90
23471;DHT22;11908;50.806;4.424;2024-02-15T14:22:49;18.20;99.90
23471;DHT22;11908;50.806;4.424;2024-02-15T14:25:21;18.10;99.90
23471;DHT22;11908;50.806;4.424;2024-02-15T14:27:47;18.20;99.90
23471;DHT22;11908;50.806;4.424;2024-02-15T14:30:15;18.10;99.90
23471;DHT22;11908;50.806;4.424;2024-02-15T14:32:59;18.00;99.90
23471;DHT22;11908;50.806;4.424;2024-02-15T14:35:35;18.10;99.90
23471;DHT22;11908;50.806;4.424;2024-02-15T14:38:08;18.20;99.90
23471;DHT22;11908;50.806;4.424;2024-02-15T14:40:40;18.20;99.90
23471;DHT22;11908;50.806;4.424;2024-02-15T14:43:07;18.30;99.90
23471;DHT22;11908;50.806;4.424;2024-02-15T14:45:40;18.50;99.90
23471;DHT22;11908;50.806;4.424;2024-02-15T14:48:09;18.50;99.90
23471;DHT22;11908;50.806;4.424;2024-02-15T14:50:39;18.40;99.90
23471;DHT22;11908;50.806;4.424;2024-02-15T14:53:05;18.30;99.90
23471;DHT22;11908;50.806;4.424;2024-02-15T14:55:33;18.20;99.90
23471;DHT22;11908;50.806;4.424;2024-02-15T14:57:59;18.20;99.90
23471;DHT22;11908;50.806;4.424;2024-02-15T15:00:25;18.20;99.90
23471;DHT22;11908;50.806;4.424;2024-02-15T15:02:52;18.30;99.90
23471;DHT22;11908;50.806;4.424;2024-02-15T15:05:22;18.30;99.90
23471;DHT22;11908;50.806;4.424;2024-02-15T15:08:06;18.20;99.90
23471;DHT22;11908;50.806;4.424;2024-02-15T15:10:51;18.20;99.90
23471;DHT22;11908;50.806;4.424;2024-02-15T15:13:35;18.10;99.90
23471;DHT22;11908;50.806;4.424;2024-02-15T15:16:02;18.10;99.90
23471;DHT22;11908;50.806;4.424;2024-02-15T15:18:33;17.90;99.90
23471;DHT22;11908;50.806;4.424;2024-02-15T15:20:59;17.90;99.90
23471;DHT22;11908;50.806;4.424;2024-02-15T15:23:28;17.80;99.90
23471;DHT22;11908;50.806;4.424;2024-02-15T15:25:58;17.80;99.90
23471;DHT22;11908;50.806;4.424;2024-02-15T15:28:24;17.80;99.90
23471;DHT22;11908;50.806;4.424;2024-02-15T15:30:49;17.70;99.90
23471;DHT22;11908;50.806;4.424;2024-02-15T15:33:16;17.70;99.90
23471;DHT22;11908;50.806;4.424;2024-02-15T15:35:43;17.70;99.90
23471;DHT22;11908;50.806;4.424;2024-02-15T15:38:12;17.60;99.90
23471;DHT22;11908;50.806;4.424;2024-02-15T15:40:38;17.60;99.90
23471;DHT22;11908;50.806;4.424;2024-02-15T15:43:04;17.60;99.90
23471;DHT22;11908;50.806;4.424;2024-02-15T15:45:37;17.60;99.90
23471;DHT22;11908;50.806;4.424;2024-02-15T15:48:02;17.50;99.90
23471;DHT22;11908;50.806;4.424;2024-02-15T15:50:31;17.40;99.90
23471;DHT22;11908;50.806;4.424;2024-02-15T15:53:05;17.20;99.90
23471;DHT22;11908;50.806;4.424;2024-02-15T15:55:35;17.20;99.90
23471;DHT22;11908;50.806;4.424;2024-02-15T15:58:01;17.10;99.90